createdAt,value
2017-08-19T00:00:51.444Z,16.1
2017-08-19T00:01:53.967Z,16.1
2017-08-19T00:02:56.847Z,16.1
2017-08-19T00:03:59.366Z,16.1
2017-08-19T00:05:02.570Z,16
2017-08-19T00:06:05.064Z,16
2017-08-19T00:07:07.928Z,16
2017-08-19T00:08:10.798Z,16
2017-08-19T00:09:13.968Z,16
2017-08-19T00:10:16.810Z,16
2017-08-19T00:11:20.006Z,16
2017-08-19T00:12:22.532Z,16
2017-08-19T00:13:25.048Z,16
2017-08-19T00:14:27.899Z,16
2017-08-19T00:15:30.744Z,16
2017-08-19T00:16:33.626Z,16
2017-08-19T00:17:36.128Z,16
2017-08-19T00:18:38.649Z,16
2017-08-19T00:19:41.151Z,16
2017-08-19T00:20:43.674Z,16
2017-08-19T00:21:46.194Z,16
2017-08-19T00:22:49.408Z,16
2017-08-19T00:23:52.252Z,16
2017-08-19T00:24:55.098Z,16
2017-08-19T00:25:57.946Z,16
2017-08-19T00:27:00.817Z,16
2017-08-19T00:28:04.004Z,16
2017-08-19T00:29:06.522Z,15.9
2017-08-19T00:30:09.354Z,16
2017-08-19T00:31:11.869Z,15.9
2017-08-19T00:32:14.724Z,15.9
2017-08-19T00:33:17.572Z,15.9
2017-08-19T00:34:20.778Z,15.9
2017-08-19T00:35:23.626Z,16
2017-08-19T00:36:26.809Z,16
2017-08-19T00:37:29.322Z,16
2017-08-19T00:38:31.831Z,16
2017-08-19T00:39:34.660Z,16
2017-08-19T00:40:37.189Z,15.9
2017-08-19T00:41:39.718Z,15.9
2017-08-19T00:42:42.227Z,15.9
2017-08-19T00:43:45.439Z,15.9
2017-08-19T00:44:48.289Z,15.9
2017-08-19T00:45:50.807Z,15.9
2017-08-19T00:46:53.314Z,15.9
2017-08-19T00:47:56.172Z,15.9
2017-08-19T00:48:59.345Z,15.9
2017-08-19T00:50:01.856Z,15.9
2017-08-19T00:51:04.366Z,15.9
2017-08-19T00:52:06.878Z,15.9
2017-08-19T00:53:09.392Z,15.9
2017-08-19T00:54:11.896Z,15.9
2017-08-19T00:55:14.766Z,15.9
2017-08-19T00:56:17.978Z,15.9
2017-08-19T00:57:20.476Z,15.9
2017-08-19T00:58:22.993Z,15.9
2017-08-19T00:59:25.504Z,15.9
2017-08-19T01:00:28.011Z,15.9
2017-08-19T01:01:30.880Z,15.9
2017-08-19T01:02:33.385Z,15.9
2017-08-19T01:03:35.884Z,15.9
2017-08-19T01:04:38.419Z,15.8
2017-08-19T01:05:40.953Z,15.9
2017-08-19T01:06:43.467Z,15.9
2017-08-19T01:07:45.961Z,15.8
2017-08-19T01:08:48.470Z,15.8
2017-08-19T01:09:50.996Z,15.8
2017-08-19T01:10:53.849Z,15.8
2017-08-19T01:11:56.359Z,15.8
2017-08-19T01:12:59.204Z,15.8
2017-08-19T01:14:02.039Z,15.8
2017-08-19T01:15:04.569Z,15.8
2017-08-19T01:16:07.076Z,15.8
2017-08-19T01:17:09.575Z,15.7
2017-08-19T01:18:12.765Z,15.7
2017-08-19T01:19:15.966Z,15.7
2017-08-19T01:20:18.481Z,15.8
2017-08-19T01:21:21.003Z,15.8
2017-08-19T01:22:23.838Z,15.7
2017-08-19T01:23:26.368Z,15.8
2017-08-19T01:24:29.220Z,15.8
2017-08-19T01:25:32.423Z,15.8
2017-08-19T01:26:34.929Z,15.7
2017-08-19T01:27:37.439Z,15.7
2017-08-19T01:28:40.619Z,15.7
2017-08-19T01:29:43.492Z,15.6
2017-08-19T01:30:46.329Z,15.6
2017-08-19T01:31:48.826Z,15.6
2017-08-19T01:32:51.334Z,15.6
2017-08-19T01:33:54.529Z,15.6
2017-08-19T01:34:57.365Z,15.6
2017-08-19T01:35:59.876Z,15.6
2017-08-19T01:37:03.085Z,15.6
2017-08-19T01:38:05.602Z,15.6
2017-08-19T01:39:08.461Z,15.6
2017-08-19T01:40:10.964Z,15.6
2017-08-19T01:41:13.482Z,15.5
2017-08-19T01:42:17.004Z,15.5
2017-08-19T01:43:19.505Z,15.6
2017-08-19T01:44:22.016Z,15.5
2017-08-19T01:45:24.530Z,15.5
2017-08-19T01:46:27.411Z,15.5
2017-08-19T01:47:29.938Z,15.5
2017-08-19T01:48:32.421Z,15.5
2017-08-19T01:49:34.942Z,15.5
2017-08-19T01:50:37.816Z,15.5
2017-08-19T01:51:40.672Z,15.5
2017-08-19T01:52:43.542Z,15.5
2017-08-19T01:53:46.743Z,15.4
2017-08-19T01:54:49.579Z,15.4
2017-08-19T01:55:52.099Z,15.4
2017-08-19T01:56:54.960Z,15.4
2017-08-19T01:57:57.470Z,15.4
2017-08-19T01:58:59.973Z,15.3
2017-08-19T02:00:02.814Z,15.3
2017-08-19T02:01:05.657Z,15.3
2017-08-19T02:02:08.178Z,15.3
2017-08-19T02:03:10.671Z,15.3
2017-08-19T02:04:13.180Z,15.3
2017-08-19T02:05:15.693Z,15.2
2017-08-19T02:06:19.575Z,15.2
2017-08-19T02:07:22.089Z,15.2
2017-08-19T02:08:24.603Z,15.2
2017-08-19T02:09:27.097Z,15.2
2017-08-19T02:10:29.605Z,15.2
2017-08-19T02:11:32.792Z,15.2
2017-08-19T02:12:35.676Z,15.1
2017-08-19T02:13:38.864Z,15.1
2017-08-19T02:14:41.746Z,15.1
2017-08-19T02:15:44.254Z,15.1
2017-08-19T02:16:46.767Z,15.1
2017-08-19T02:17:49.953Z,15.1
2017-08-19T02:18:53.140Z,15.1
2017-08-19T02:19:55.996Z,15
2017-08-19T02:20:59.198Z,15
2017-08-19T02:22:02.393Z,15
2017-08-19T02:23:04.891Z,15
2017-08-19T02:24:08.066Z,15
2017-08-19T02:25:10.577Z,15
2017-08-19T02:26:13.085Z,15
2017-08-19T02:27:15.610Z,15
2017-08-19T02:28:18.114Z,15
2017-08-19T02:29:21.645Z,15
2017-08-19T02:30:24.154Z,15
2017-08-19T02:31:27.007Z,15
2017-08-19T02:32:29.521Z,15
2017-08-19T02:33:33.055Z,15
2017-08-19T02:34:35.555Z,15
2017-08-19T02:35:38.082Z,15
2017-08-19T02:36:40.597Z,15
2017-08-19T02:37:43.783Z,14.9
2017-08-19T02:38:46.958Z,14.9
2017-08-19T02:39:49.823Z,14.9
2017-08-19T02:40:52.684Z,14.9
2017-08-19T02:41:55.552Z,14.9
2017-08-19T02:42:58.070Z,14.8
2017-08-19T02:44:00.575Z,14.8
2017-08-19T02:45:03.790Z,14.8
2017-08-19T02:46:06.299Z,14.8
2017-08-19T02:47:08.819Z,14.7
2017-08-19T02:48:11.679Z,14.7
2017-08-19T02:49:14.527Z,14.7
2017-08-19T02:50:17.714Z,14.6
2017-08-19T02:51:20.564Z,14.6
2017-08-19T02:52:23.760Z,14.6
2017-08-19T02:53:27.637Z,14.6
2017-08-19T02:54:30.490Z,14.5
2017-08-19T02:55:33.018Z,14.5
2017-08-19T02:56:35.520Z,14.5
2017-08-19T02:57:38.019Z,14.5
2017-08-19T02:58:41.202Z,14.4
2017-08-19T02:59:44.394Z,14.4
2017-08-19T03:00:47.581Z,14.4
2017-08-19T03:01:50.421Z,14.4
2017-08-19T03:02:53.258Z,14.3
2017-08-19T03:03:55.768Z,14.3
2017-08-19T03:04:58.293Z,14.3
2017-08-19T03:06:01.131Z,14.3
2017-08-19T03:07:03.983Z,14.2
2017-08-19T03:08:06.546Z,14.2
2017-08-19T03:09:09.400Z,14.2
2017-08-19T03:10:12.571Z,14.2
2017-08-19T03:11:15.094Z,14.2
2017-08-19T03:12:17.954Z,14.1
2017-08-19T03:13:20.808Z,14.1
2017-08-19T03:14:23.653Z,14.1
2017-08-19T03:15:26.499Z,14.1
2017-08-19T03:16:28.996Z,14.1
2017-08-19T03:17:31.828Z,14.1
2017-08-19T03:18:34.682Z,14.1
2017-08-19T03:19:37.514Z,14.1
2017-08-19T03:20:40.028Z,14
2017-08-19T03:21:42.540Z,14.1
2017-08-19T03:22:45.043Z,14
2017-08-19T03:23:47.550Z,14
2017-08-19T03:24:50.055Z,14
2017-08-19T03:25:52.564Z,14
2017-08-19T03:26:55.090Z,14
2017-08-19T03:27:57.605Z,14
2017-08-19T03:29:00.119Z,14
2017-08-19T03:30:03.702Z,14
2017-08-19T03:31:06.899Z,13.9
2017-08-19T03:32:09.417Z,13.9
2017-08-19T03:33:12.260Z,13.9
2017-08-19T03:34:15.454Z,13.9
2017-08-19T03:35:17.947Z,13.9
2017-08-19T03:36:20.468Z,13.9
2017-08-19T03:37:23.300Z,13.9
2017-08-19T03:38:25.801Z,13.9
2017-08-19T03:39:28.310Z,13.9
2017-08-19T03:40:30.805Z,13.9
2017-08-19T03:41:33.645Z,13.8
2017-08-19T03:42:36.166Z,13.9
2017-08-19T03:43:38.669Z,13.9
2017-08-19T03:44:41.176Z,13.9
2017-08-19T03:45:43.685Z,13.9
2017-08-19T03:46:46.190Z,13.9
2017-08-19T03:47:48.697Z,13.9
2017-08-19T03:48:51.220Z,13.8
2017-08-19T03:49:54.415Z,13.9
2017-08-19T03:50:57.264Z,13.9
2017-08-19T03:51:59.774Z,13.9
2017-08-19T03:53:02.951Z,13.9
2017-08-19T03:54:06.143Z,13.9
2017-08-19T03:55:08.993Z,13.9
2017-08-19T03:56:11.503Z,13.9
2017-08-19T03:57:14.005Z,13.9
2017-08-19T03:58:16.862Z,13.9
2017-08-19T03:59:19.384Z,13.9
2017-08-19T04:00:21.893Z,13.9
2017-08-19T04:01:24.399Z,14
2017-08-19T04:02:27.600Z,14
2017-08-19T04:03:30.456Z,14
2017-08-19T04:04:33.317Z,14
2017-08-19T04:05:36.495Z,14
2017-08-19T04:06:39.003Z,14
2017-08-19T04:07:41.521Z,14.1
2017-08-19T04:08:44.355Z,14.1
2017-08-19T04:09:46.863Z,14.1
2017-08-19T04:10:49.378Z,14.1
2017-08-19T04:11:52.569Z,14.1
2017-08-19T04:12:55.423Z,14.1
2017-08-19T04:13:58.266Z,14.1
2017-08-19T04:15:01.442Z,14.1
2017-08-19T04:16:03.959Z,14.1
2017-08-19T04:17:06.807Z,14.1
2017-08-19T04:18:09.306Z,14.1
2017-08-19T04:19:12.144Z,14.1
2017-08-19T04:20:15.000Z,14
2017-08-19T04:21:17.832Z,14
2017-08-19T04:22:21.358Z,14.1
2017-08-19T04:23:24.546Z,14.1
2017-08-19T04:24:27.063Z,14.1
2017-08-19T04:25:29.565Z,14
2017-08-19T04:26:32.772Z,14
2017-08-19T04:27:35.261Z,14
2017-08-19T04:28:38.124Z,14
2017-08-19T04:29:40.636Z,14
2017-08-19T04:30:43.825Z,14
2017-08-19T04:31:46.667Z,13.9
2017-08-19T04:32:49.176Z,13.9
2017-08-19T04:33:51.674Z,13.9
2017-08-19T04:34:54.207Z,13.9
2017-08-19T04:35:56.712Z,13.9
2017-08-19T04:36:59.240Z,13.9
2017-08-19T04:38:01.748Z,13.9
2017-08-19T04:39:04.586Z,13.9
2017-08-19T04:40:07.087Z,13.9
2017-08-19T04:41:09.601Z,13.8
2017-08-19T04:42:12.113Z,13.8
2017-08-19T04:43:14.623Z,13.9
2017-08-19T04:44:17.155Z,13.8
2017-08-19T04:45:19.678Z,13.8
2017-08-19T04:46:22.515Z,13.8
2017-08-19T04:47:25.040Z,13.8
2017-08-19T04:48:27.539Z,13.8
2017-08-19T04:49:30.064Z,13.8
2017-08-19T04:50:32.562Z,13.8
2017-08-19T04:51:35.075Z,13.8
2017-08-19T04:52:37.596Z,13.8
2017-08-19T04:53:40.136Z,13.8
2017-08-19T04:54:42.979Z,13.7
2017-08-19T04:55:45.493Z,13.7
2017-08-19T04:56:48.003Z,13.7
2017-08-19T04:57:51.176Z,13.7
2017-08-19T04:58:54.036Z,13.7
2017-08-19T04:59:56.527Z,13.7
2017-08-19T05:00:59.367Z,13.7
2017-08-19T05:02:02.568Z,13.7
2017-08-19T05:03:05.751Z,13.7
2017-08-19T05:04:08.932Z,13.7
2017-08-19T05:05:11.438Z,13.6
2017-08-19T05:06:13.937Z,13.6
2017-08-19T05:07:16.443Z,13.7
2017-08-19T05:08:19.281Z,13.7
2017-08-19T05:09:22.145Z,13.7
2017-08-19T05:10:25.340Z,13.6
2017-08-19T05:11:28.869Z,13.7
2017-08-19T05:12:31.376Z,13.7
2017-08-19T05:13:33.898Z,13.7
2017-08-19T05:14:36.733Z,13.7
2017-08-19T05:15:39.253Z,13.7
2017-08-19T05:16:41.746Z,13.7
2017-08-19T05:17:44.596Z,13.7
2017-08-19T05:18:47.103Z,13.7
2017-08-19T05:19:49.970Z,13.7
2017-08-19T05:20:52.829Z,13.7
2017-08-19T05:21:56.010Z,13.7
2017-08-19T05:22:58.513Z,13.7
2017-08-19T05:24:01.396Z,13.7
2017-08-19T05:25:03.945Z,13.7
2017-08-19T05:26:06.439Z,13.7
2017-08-19T05:27:08.966Z,13.7
2017-08-19T05:28:11.807Z,13.7
2017-08-19T05:29:15.337Z,13.6
2017-08-19T05:30:18.174Z,13.6
2017-08-19T05:31:21.026Z,13.7
2017-08-19T05:32:23.876Z,13.7
2017-08-19T05:33:26.737Z,13.7
2017-08-19T05:34:29.233Z,13.7
2017-08-19T05:35:32.109Z,13.7
2017-08-19T05:36:35.306Z,13.8
2017-08-19T05:37:38.166Z,13.8
2017-08-19T05:38:41.004Z,13.7
2017-08-19T05:39:43.513Z,13.8
2017-08-19T05:40:46.741Z,13.8
2017-08-19T05:41:49.262Z,13.8
2017-08-19T05:42:52.114Z,13.8
2017-08-19T05:43:55.001Z,13.8
2017-08-19T05:44:57.501Z,13.8
2017-08-19T05:46:00.017Z,13.8
2017-08-19T05:47:02.872Z,13.8
2017-08-19T05:48:05.704Z,13.9
2017-08-19T05:49:08.909Z,13.9
2017-08-19T05:50:11.742Z,13.9
2017-08-19T05:51:14.591Z,13.9
2017-08-19T05:52:17.453Z,13.9
2017-08-19T05:53:19.957Z,13.8
2017-08-19T05:54:22.461Z,13.9
2017-08-19T05:55:24.984Z,13.9
2017-08-19T05:56:28.190Z,13.9
2017-08-19T05:57:30.702Z,13.9
2017-08-19T05:58:33.217Z,13.9
2017-08-19T05:59:35.719Z,13.9
2017-08-19T06:00:38.576Z,13.9
2017-08-19T06:01:41.084Z,13.9
2017-08-19T06:02:43.589Z,14
2017-08-19T06:03:46.433Z,14
2017-08-19T06:04:48.959Z,13.9
2017-08-19T06:05:51.469Z,14
2017-08-19T06:06:54.635Z,14
2017-08-19T06:07:57.510Z,14.1
2017-08-19T06:09:00.003Z,14.1
2017-08-19T06:10:03.527Z,14.1
2017-08-19T06:11:06.379Z,14.2
2017-08-19T06:12:08.883Z,14.2
2017-08-19T06:13:11.408Z,14.2
2017-08-19T06:14:13.936Z,14.1
2017-08-19T06:15:16.436Z,14.1
2017-08-19T06:16:19.639Z,14.2
2017-08-19T06:17:22.481Z,14.2
2017-08-19T06:18:25.705Z,14.2
2017-08-19T06:19:28.573Z,14.2
2017-08-19T06:20:31.086Z,14.2
2017-08-19T06:21:33.587Z,14.2
2017-08-19T06:22:36.081Z,14.3
2017-08-19T06:23:38.934Z,14.3
2017-08-19T06:24:42.452Z,14.3
2017-08-19T06:25:45.635Z,14.3
2017-08-19T06:26:48.518Z,14.4
2017-08-19T06:27:51.016Z,14.3
2017-08-19T06:28:53.517Z,14.3
2017-08-19T06:29:56.025Z,14.4
2017-08-19T06:30:58.527Z,14.4
2017-08-19T06:32:01.048Z,14.4
2017-08-19T06:33:03.567Z,14.4
2017-08-19T06:34:06.091Z,14.4
2017-08-19T06:35:08.604Z,14.4
2017-08-19T06:36:11.441Z,14.4
2017-08-19T06:37:13.951Z,14.4
2017-08-19T06:38:17.180Z,14.5
2017-08-19T06:39:19.692Z,14.5
2017-08-19T06:40:22.526Z,14.6
2017-08-19T06:41:25.046Z,14.6
2017-08-19T06:42:27.871Z,14.6
2017-08-19T06:43:30.719Z,14.6
2017-08-19T06:44:33.903Z,14.7
2017-08-19T06:45:36.758Z,14.8
2017-08-19T06:46:39.605Z,14.8
2017-08-19T06:47:42.802Z,14.8
2017-08-19T06:48:45.311Z,14.7
2017-08-19T06:49:47.835Z,14.8
2017-08-19T06:50:51.026Z,14.8
2017-08-19T06:51:53.553Z,14.9
2017-08-19T06:52:56.065Z,14.9
2017-08-19T06:53:58.581Z,14.9
2017-08-19T06:55:01.417Z,14.9
2017-08-19T06:56:04.275Z,14.9
2017-08-19T06:57:06.787Z,14.9
2017-08-19T06:58:09.299Z,14.9
2017-08-19T06:59:11.832Z,15
2017-08-19T07:00:14.338Z,15
2017-08-19T07:01:16.840Z,15
2017-08-19T07:02:20.045Z,15.1
2017-08-19T07:03:22.549Z,15.2
2017-08-19T07:04:25.065Z,15.1
2017-08-19T07:05:27.943Z,15.1
2017-08-19T07:06:30.473Z,15.1
2017-08-19T07:07:33.686Z,15.1
2017-08-19T07:08:36.536Z,15.1
2017-08-19T07:09:39.391Z,15.2
2017-08-19T07:10:41.898Z,15.2
2017-08-19T07:11:45.089Z,15.2
2017-08-19T07:12:47.597Z,15.2
2017-08-19T07:13:50.086Z,15.2
2017-08-19T07:14:52.587Z,15.3
2017-08-19T07:15:55.781Z,15.3
2017-08-19T07:16:58.276Z,15.4
2017-08-19T07:18:00.811Z,15.4
2017-08-19T07:19:04.336Z,15.4
2017-08-19T07:20:06.836Z,15.5
2017-08-19T07:21:10.062Z,15.6
2017-08-19T07:22:12.898Z,15.7
2017-08-19T07:23:15.408Z,15.7
2017-08-19T07:24:18.947Z,15.6
2017-08-19T07:25:21.472Z,15.7
2017-08-19T07:26:24.329Z,15.7
2017-08-19T07:27:27.189Z,15.7
2017-08-19T07:28:30.019Z,15.8
2017-08-19T07:29:32.866Z,15.7
2017-08-19T07:30:35.385Z,15.8
2017-08-19T07:31:37.885Z,15.8
2017-08-19T07:32:40.414Z,15.8
2017-08-19T07:33:43.267Z,15.9
2017-08-19T07:34:46.458Z,15.9
2017-08-19T07:35:48.953Z,15.9
2017-08-19T07:36:52.138Z,15.9
2017-08-19T07:37:54.668Z,16
2017-08-19T07:38:57.175Z,16
2017-08-19T07:40:00.337Z,16
2017-08-19T07:41:03.194Z,16
2017-08-19T07:42:06.036Z,16.1
2017-08-19T07:43:08.889Z,16.1
2017-08-19T07:44:11.408Z,16.2
2017-08-19T07:45:13.925Z,16.3
2017-08-19T07:46:16.773Z,16.3
2017-08-19T07:47:19.319Z,16.4
2017-08-19T07:48:21.815Z,16.5
2017-08-19T07:49:24.314Z,16.6
2017-08-19T07:50:26.834Z,16.6
2017-08-19T07:51:29.339Z,16.6
2017-08-19T07:52:31.855Z,16.6
2017-08-19T07:53:34.712Z,16.7
2017-08-19T07:54:37.210Z,16.7
2017-08-19T07:55:39.742Z,16.7
2017-08-19T07:56:42.922Z,16.7
2017-08-19T07:57:46.206Z,16.8
2017-08-19T07:58:49.947Z,16.9
2017-08-19T07:59:52.464Z,17
2017-08-19T08:00:54.993Z,17
2017-08-19T08:01:57.517Z,17
2017-08-19T08:03:00.028Z,16.9
2017-08-19T08:04:02.885Z,16.8
2017-08-19T08:05:06.095Z,16.9
2017-08-19T08:06:08.609Z,16.9
2017-08-19T08:07:12.153Z,17.1
2017-08-19T08:08:14.664Z,17.1
2017-08-19T08:09:17.190Z,17
2017-08-19T08:10:20.040Z,16.9
2017-08-19T08:11:22.895Z,16.8
2017-08-19T08:12:25.421Z,16.8
2017-08-19T08:13:27.935Z,16.8
2017-08-19T08:14:30.463Z,16.9
2017-08-19T08:15:33.314Z,16.9
2017-08-19T08:16:35.830Z,17
2017-08-19T08:17:38.693Z,17.4
2017-08-19T08:18:41.190Z,17.6
2017-08-19T08:19:44.383Z,17.5
2017-08-19T08:20:46.897Z,17.4
2017-08-19T08:21:49.755Z,17.3
2017-08-19T08:22:53.313Z,17.3
2017-08-19T08:23:56.174Z,17.3
2017-08-19T08:24:58.678Z,17.6
2017-08-19T08:26:01.221Z,17.9
2017-08-19T08:27:04.077Z,17.9
2017-08-19T08:28:07.281Z,17.9
2017-08-19T08:29:10.456Z,17.9
2017-08-19T08:30:12.980Z,17.8
2017-08-19T08:31:15.492Z,17.9
2017-08-19T08:32:18.340Z,18.1
2017-08-19T08:33:20.868Z,18.4
2017-08-19T08:34:24.074Z,18.4
2017-08-19T08:35:26.945Z,18.4
2017-08-19T08:36:29.463Z,18.1
2017-08-19T08:37:32.332Z,17.9
2017-08-19T08:38:35.181Z,17.9
2017-08-19T08:39:37.711Z,17.8
2017-08-19T08:40:40.234Z,17.8
2017-08-19T08:41:42.767Z,17.8
2017-08-19T08:42:45.657Z,18.1
2017-08-19T08:43:48.511Z,18.1
2017-08-19T08:44:51.006Z,18.3
2017-08-19T08:45:53.881Z,18.4
2017-08-19T08:46:56.400Z,18.4
2017-08-19T08:47:58.917Z,18.3
2017-08-19T08:49:01.782Z,18.3
2017-08-19T08:50:04.324Z,18.2
2017-08-19T08:51:06.848Z,18.1
2017-08-19T08:52:10.049Z,18.1
2017-08-19T08:53:12.574Z,18.1
2017-08-19T08:54:15.423Z,18.1
2017-08-19T08:55:18.292Z,18.4
2017-08-19T08:56:21.158Z,18.6
2017-08-19T08:57:23.661Z,18.6
2017-08-19T08:58:26.178Z,18.7
2017-08-19T08:59:29.365Z,18.9
2017-08-19T09:00:31.886Z,18.8
2017-08-19T09:01:35.131Z,19
2017-08-19T09:02:37.631Z,19.2
2017-08-19T09:03:40.138Z,19.1
2017-08-19T09:04:42.668Z,19
2017-08-19T09:05:45.574Z,19.1
2017-08-19T09:06:48.083Z,19.3
2017-08-19T09:07:50.630Z,19.3
2017-08-19T09:08:53.485Z,19.2
2017-08-19T09:09:55.991Z,18.8
2017-08-19T09:10:58.877Z,18.7
2017-08-19T09:12:01.719Z,18.5
2017-08-19T09:13:04.922Z,18.8
2017-08-19T09:14:08.127Z,19
2017-08-19T09:15:11.009Z,19
2017-08-19T09:16:13.524Z,18.7
2017-08-19T09:17:16.050Z,18.7
2017-08-19T09:18:19.269Z,18.8
2017-08-19T09:19:21.803Z,18.6
2017-08-19T09:20:24.665Z,18.5
2017-08-19T09:21:27.184Z,18.8
2017-08-19T09:22:30.377Z,19.2
2017-08-19T09:23:32.902Z,19.1
2017-08-19T09:24:35.415Z,19
2017-08-19T09:25:38.269Z,19
2017-08-19T09:26:41.126Z,18.9
2017-08-19T09:27:43.993Z,18.9
2017-08-19T09:28:46.500Z,18.8
2017-08-19T09:29:49.037Z,18.7
2017-08-19T09:30:51.550Z,18.8
2017-08-19T09:31:54.072Z,18.7
2017-08-19T09:32:56.932Z,18.7
2017-08-19T09:33:59.808Z,18.8
2017-08-19T09:35:02.653Z,18.8
2017-08-19T09:36:05.169Z,18.9
2017-08-19T09:37:07.698Z,18.9
2017-08-19T09:38:10.237Z,18.9
2017-08-19T09:39:13.092Z,18.8
2017-08-19T09:40:15.600Z,18.8
2017-08-19T09:41:18.458Z,18.8
2017-08-19T09:42:20.990Z,18.9
2017-08-19T09:43:23.489Z,19.2
2017-08-19T09:44:26.010Z,19.3
2017-08-19T09:45:28.527Z,19.6
2017-08-19T09:46:31.054Z,20
2017-08-19T09:47:33.580Z,20.1
2017-08-19T09:48:36.439Z,20.2
2017-08-19T09:49:38.962Z,20.2
2017-08-19T09:50:41.487Z,20.4
2017-08-19T09:51:44.006Z,20.3
2017-08-19T09:52:46.536Z,20
2017-08-19T09:53:49.037Z,19.5
2017-08-19T09:54:51.590Z,19.2
2017-08-19T09:55:54.106Z,19
2017-08-19T09:56:57.314Z,18.8
2017-08-19T09:57:59.827Z,19.1
2017-08-19T09:59:02.716Z,19.4
2017-08-19T10:00:05.573Z,19.7
2017-08-19T10:01:08.442Z,20
2017-08-19T10:02:11.291Z,20.2
2017-08-19T10:03:13.804Z,20.4
2017-08-19T10:04:16.325Z,20.3
2017-08-19T10:05:18.851Z,20.1
2017-08-19T10:06:21.697Z,19.9
2017-08-19T10:07:24.564Z,19.7
2017-08-19T10:08:27.437Z,19.5
2017-08-19T10:09:30.649Z,19.3
2017-08-19T10:10:33.512Z,19.1
2017-08-19T10:11:36.026Z,18.9
2017-08-19T10:12:38.544Z,19.1
2017-08-19T10:13:41.734Z,19.4
2017-08-19T10:14:44.591Z,19.7
2017-08-19T10:15:47.454Z,20
2017-08-19T10:16:50.661Z,20.3
2017-08-19T10:17:53.487Z,20.3
2017-08-19T10:18:56.347Z,20.5
2017-08-19T10:19:59.227Z,20.5
2017-08-19T10:21:01.740Z,20.7
2017-08-19T10:22:04.595Z,21
2017-08-19T10:23:07.104Z,21.2
2017-08-19T10:24:09.622Z,21.2
2017-08-19T10:25:12.163Z,21.5
2017-08-19T10:26:14.685Z,21.7
2017-08-19T10:27:17.540Z,22
2017-08-19T10:28:20.412Z,21.9
2017-08-19T10:29:23.992Z,21.9
2017-08-19T10:30:27.187Z,22
2017-08-19T10:31:29.710Z,22.2
2017-08-19T10:32:32.223Z,22.2
2017-08-19T10:33:34.752Z,21.8
2017-08-19T10:34:37.282Z,21.6
2017-08-19T10:35:39.817Z,21.5
2017-08-19T10:36:42.684Z,21.3
2017-08-19T10:37:45.209Z,20.9
2017-08-19T10:38:48.411Z,20.6
2017-08-19T10:39:50.947Z,20.3
2017-08-19T10:40:53.450Z,20.3
2017-08-19T10:41:55.976Z,20.1
2017-08-19T10:42:58.488Z,20.2
2017-08-19T10:44:01.357Z,19.9
2017-08-19T10:45:04.913Z,20
2017-08-19T10:46:08.113Z,19.8
2017-08-19T10:47:10.636Z,19.8
2017-08-19T10:48:13.500Z,19.5
2017-08-19T10:49:16.029Z,19.3
2017-08-19T10:50:20.271Z,19.3
2017-08-19T10:51:22.781Z,19.3
2017-08-19T10:52:25.298Z,19.4
2017-08-19T10:53:28.174Z,19.4
2017-08-19T10:54:31.024Z,19.4
2017-08-19T10:55:33.549Z,19.2
2017-08-19T10:56:36.074Z,19.1
2017-08-19T10:57:38.590Z,19.2
2017-08-19T10:58:41.119Z,19.2
2017-08-19T10:59:43.645Z,19.1
2017-08-19T11:00:46.493Z,19.4
2017-08-19T11:01:49.019Z,19.7
2017-08-19T11:02:51.535Z,20
2017-08-19T11:03:54.392Z,20.5
2017-08-19T11:04:56.923Z,20.7
2017-08-19T11:05:59.461Z,20.9
2017-08-19T11:07:01.985Z,20.9
2017-08-19T11:08:04.820Z,21.1
2017-08-19T11:09:07.344Z,21.3
2017-08-19T11:10:09.890Z,21.4
2017-08-19T11:11:12.415Z,21.5
2017-08-19T11:12:14.925Z,21.8
2017-08-19T11:13:18.124Z,21.9
2017-08-19T11:14:20.648Z,22
2017-08-19T11:15:23.520Z,22
2017-08-19T11:16:26.033Z,22
2017-08-19T11:17:29.248Z,21.6
2017-08-19T11:18:32.120Z,21.3
2017-08-19T11:19:34.645Z,20.8
2017-08-19T11:20:37.162Z,20.7
2017-08-19T11:21:39.675Z,20.7
2017-08-19T11:22:42.207Z,20.5
2017-08-19T11:23:44.724Z,20.4
2017-08-19T11:24:47.239Z,20.3
2017-08-19T11:25:49.748Z,20.2
2017-08-19T11:26:52.286Z,20.1
2017-08-19T11:27:54.821Z,20
2017-08-19T11:28:57.679Z,19.9
2017-08-19T11:30:00.549Z,19.9
2017-08-19T11:31:03.754Z,19.8
2017-08-19T11:32:06.612Z,19.7
2017-08-19T11:33:09.133Z,19.7
2017-08-19T11:34:12.015Z,19.7
2017-08-19T11:35:15.563Z,19.7
2017-08-19T11:36:18.754Z,19.7
2017-08-19T11:37:21.272Z,19.6
2017-08-19T11:38:24.125Z,19.6
2017-08-19T11:39:26.654Z,19.7
2017-08-19T11:40:29.198Z,19.7
2017-08-19T11:41:32.745Z,19.6
2017-08-19T11:42:35.599Z,19.7
2017-08-19T11:43:38.112Z,19.7
2017-08-19T11:44:40.967Z,19.6
2017-08-19T11:45:43.496Z,19.5
2017-08-19T11:46:46.349Z,19.5
2017-08-19T11:47:48.863Z,19.6
2017-08-19T11:48:51.383Z,19.5
2017-08-19T11:49:53.912Z,19.6
2017-08-19T11:50:56.423Z,19.5
2017-08-19T11:51:58.961Z,19.4
2017-08-19T11:53:01.816Z,19.3
2017-08-19T11:54:04.671Z,19.1
2017-08-19T11:55:07.190Z,19.3
2017-08-19T11:56:09.710Z,19.3
2017-08-19T11:57:12.240Z,19.3
2017-08-19T11:58:14.778Z,19.2
2017-08-19T11:59:17.988Z,19.1
2017-08-19T12:00:20.505Z,19
2017-08-19T12:01:23.368Z,18.9
2017-08-19T12:02:26.234Z,18.9
2017-08-19T12:03:28.735Z,18.7
2017-08-19T12:04:31.249Z,18.7
2017-08-19T12:05:34.111Z,18.6
2017-08-19T12:06:36.639Z,18.7
2017-08-19T12:07:39.515Z,19
2017-08-19T12:08:42.368Z,19.4
2017-08-19T12:09:44.880Z,19.7
2017-08-19T12:10:47.408Z,19.9
2017-08-19T12:11:50.265Z,20
2017-08-19T12:12:53.132Z,20.3
2017-08-19T12:13:55.637Z,20.2
2017-08-19T12:14:58.154Z,20
2017-08-19T12:16:00.662Z,20
2017-08-19T12:17:03.534Z,20.1
2017-08-19T12:18:06.392Z,20.2
2017-08-19T12:19:08.905Z,20.3
2017-08-19T12:20:11.790Z,20.4
2017-08-19T12:21:14.315Z,20.4
2017-08-19T12:22:17.511Z,20.3
2017-08-19T12:23:20.055Z,20.3
2017-08-19T12:24:22.897Z,20.1
2017-08-19T12:25:25.766Z,20
2017-08-19T12:26:28.652Z,19.9
2017-08-19T12:27:31.179Z,19.9
2017-08-19T12:28:33.701Z,19.9
2017-08-19T12:29:36.227Z,19.9
2017-08-19T12:30:38.745Z,19.7
2017-08-19T12:31:41.290Z,19.6
2017-08-19T12:32:44.489Z,19.6
2017-08-19T12:33:47.020Z,19.5
2017-08-19T12:34:50.538Z,19.4
2017-08-19T12:35:53.067Z,19.3
2017-08-19T12:36:55.924Z,19.2
2017-08-19T12:37:58.799Z,19.1
2017-08-19T12:39:01.315Z,19.1
2017-08-19T12:40:04.178Z,19
2017-08-19T12:41:07.044Z,18.9
2017-08-19T12:42:09.569Z,18.7
2017-08-19T12:43:12.069Z,18.6
2017-08-19T12:44:14.580Z,18.5
2017-08-19T12:45:17.095Z,18.6
2017-08-19T12:46:19.636Z,18.9
2017-08-19T12:47:22.145Z,19
2017-08-19T12:48:25.001Z,19.4
2017-08-19T12:49:27.843Z,19.6
2017-08-19T12:50:30.362Z,19.9
2017-08-19T12:51:33.222Z,19.9
2017-08-19T12:52:35.732Z,20.2
2017-08-19T12:53:38.237Z,20.3
2017-08-19T12:54:40.755Z,20.5
2017-08-19T12:55:43.264Z,21
2017-08-19T12:56:45.797Z,21.2
2017-08-19T12:57:48.315Z,21.2
2017-08-19T12:58:51.172Z,21
2017-08-19T12:59:54.037Z,21.4
2017-08-19T13:00:56.549Z,21.5
2017-08-19T13:01:59.479Z,21.5
2017-08-19T13:03:02.349Z,21.6
2017-08-19T13:04:05.226Z,21.8
2017-08-19T13:05:07.729Z,21.8
2017-08-19T13:06:10.594Z,21.8
2017-08-19T13:07:13.460Z,21.7
2017-08-19T13:08:16.019Z,21.9
2017-08-19T13:09:18.543Z,21.9
2017-08-19T13:10:21.459Z,21.9
2017-08-19T13:11:24.308Z,22
2017-08-19T13:12:27.168Z,21.9
2017-08-19T13:13:30.057Z,21.8
2017-08-19T13:14:32.552Z,21.4
2017-08-19T13:15:35.426Z,20.9
2017-08-19T13:16:38.281Z,20.7
2017-08-19T13:17:41.818Z,20.5
2017-08-19T13:18:44.681Z,20.3
2017-08-19T13:19:48.199Z,20.3
2017-08-19T13:20:50.752Z,20.2
2017-08-19T13:21:53.636Z,20.3
2017-08-19T13:22:56.826Z,20.2
2017-08-19T13:24:00.404Z,19.9
2017-08-19T13:25:03.629Z,19.8
2017-08-19T13:26:06.149Z,19.8
2017-08-19T13:27:09.014Z,19.6
2017-08-19T13:28:11.541Z,19.6
2017-08-19T13:29:14.048Z,19.6
2017-08-19T13:30:16.567Z,19.6
2017-08-19T13:31:19.785Z,19.7
2017-08-19T13:32:22.294Z,19.7
2017-08-19T13:33:24.809Z,19.6
2017-08-19T13:34:28.029Z,19.6
2017-08-19T13:35:31.220Z,19.8
2017-08-19T13:36:33.728Z,19.9
2017-08-19T13:37:36.251Z,19.9
2017-08-19T13:38:39.262Z,19.9
2017-08-19T13:39:44.544Z,19.9
2017-08-19T13:40:47.557Z,19.9
2017-08-19T13:41:50.078Z,20
2017-08-19T13:42:53.629Z,19.9
2017-08-19T13:43:57.608Z,19.8
2017-08-19T13:45:00.112Z,20
2017-08-19T13:46:03.050Z,20.2
2017-08-19T13:47:05.910Z,20.5
2017-08-19T13:48:08.764Z,20.8
2017-08-19T13:49:11.955Z,21
2017-08-19T13:50:14.483Z,21.2
2017-08-19T13:51:17.673Z,21.2
2017-08-19T13:52:21.228Z,21
2017-08-19T13:53:24.399Z,20.9
2017-08-19T13:54:26.906Z,20.7
2017-08-19T13:55:29.451Z,20.5
2017-08-19T13:56:31.984Z,20.3
2017-08-19T13:57:34.831Z,20.2
2017-08-19T13:58:37.360Z,20.2
2017-08-19T13:59:39.881Z,20.2
2017-08-19T14:00:42.402Z,20
2017-08-19T14:01:44.950Z,20
2017-08-19T14:02:47.489Z,20
2017-08-19T14:03:50.336Z,19.7